Decoded Metar for UUWW (MOSCOW/VNUKOVO in RUSSIA) (IATA:VKO) | Meteo·Mobile Aviation Weather
aviador You're here:

UUWW Decoded Metar

MOSCOW/VNUKOVO in RUSSIA
Report Time2019-07-22 01:00:00
UTC Time2019-07-22 01:15:15
Flight Rules vfr VFR
Wind210° at 2 kt
W.Decomp.*RWY 19: 2.0 kt HW 0.3 kt RCW
RWY 24: 1.5 kt HW 1.3 kt LCW
Visibility9999 m
Phenomena:N/A
Clouds:N/A
Expected CloudBase > 800 ft AGL from Temp-Dew spread
CeilingNone
Temp14°C (ISA 0)
Dew Point12°C (88% RH)
AAT13.9°C
QNH1017 hPa
Density Alt761 ft
Elevation666 ft
Report Wrong Elevation
Raw Report
UUWW 220100Z 21001MPS CAVOK 14/12 Q1017 R24/000070 NOSIG=

Extra information for UUWW:More info

Metar Taf Metar & Taf Last 4 Metars F.Rules Stats Wind Profile Meteogram Temp Stats Airport Information Weather charts Add Link Nearby VenuesMetar ALERT Operation Metar Decoded Social comments